WetterOnline ( https://www.wetteronline.de )

Wetter aktuell Hockweiler

Aktuelles Wetter: Trier/Petrisberg (273m)

6-stündlich | Neueste Meldungen
Ortszeit Temperatur Wetter
Mo, 22.04. 14:00 24.9° C wolkenlos
Mo, 22.04. 8:00 10.0° C leicht bewölkt
Mo, 22.04. 2:00 12.3° C bewölkt
So, 21.04. 20:00 21.1° C wolkenlos
So, 21.04. 14:00 23.3° C wolkenlos
So, 21.04. 8:00 8.8° C wolkenlos
So, 21.04. 2:00 11.6° C wolkenlos
Sa, 20.04. 20:00 20.9° C wolkenlos
Ortszeit Temperatur Wetter
Mo, 22.04. 15:30 23.8° C fast wolkenlos
Mo, 22.04. 15:20 23.8° C fast wolkenlos
Mo, 22.04. 15:10 23.8° C fast wolkenlos
Mo, 22.04. 15:00 24.6° C fast wolkenlos
Mo, 22.04. 14:50 24.6° C fast wolkenlos
Mo, 22.04. 14:40 24.0° C leicht bewölkt
Mo, 22.04. 14:30 24.3° C leicht bewölkt
Mo, 22.04. 14:00 24.9° C wolkenlos
Mo, 22.04. 13:30 23.7° C fast wolkenlos
Mo, 22.04. 13:00 23.6° C fast wolkenlos
Mo, 22.04. 12:30 23.6° C bewölkt
Ortszeit Relative Feuchte Sichtweite
Mo, 22.04. 14:00 23% 60 km
Mo, 22.04. 8:00 57% 65 km
Mo, 22.04. 2:00 47% 70 km
So, 21.04. 20:00 24% 70 km
So, 21.04. 14:00 21% 55 km
So, 21.04. 8:00 69% 50 km
So, 21.04. 2:00 54% 55 km
Sa, 20.04. 20:00 24% 70 km
Ortszeit Relative Feuchte Sichtweite
Mo, 22.04. 15:30 23% 65 km
Mo, 22.04. 15:20 23% -
Mo, 22.04. 15:10 27% -
Mo, 22.04. 15:00 24% 70 km
Mo, 22.04. 14:50 24% -
Mo, 22.04. 14:40 24% -
Mo, 22.04. 14:30 24% 65 km
Mo, 22.04. 14:00 23% 60 km
Mo, 22.04. 13:30 23% 65 km
Mo, 22.04. 13:00 23% 60 km
Mo, 22.04. 12:30 22% 45 km
Ortszeit Niederschlagsmenge Niederschlagsart
Mo, 22.04. 14:00 0.0 l/m2 in 6 Std. -
Mo, 22.04. 8:00 0.0 l/m2 in 12 Std. -
Mo, 22.04. 2:00 0.0 l/m2 in 6 Std. -
So, 21.04. 20:00 0.0 l/m2 in 12 Std. -
So, 21.04. 14:00 0.0 l/m2 in 6 Std. -
So, 21.04. 8:00 0.0 l/m2 in 12 Std. -
So, 21.04. 2:00 0.0 l/m2 in 6 Std. -
Sa, 20.04. 20:00 0.0 l/m2 in 12 Std. -
Ortszeit Niederschlagsmenge Niederschlagsart
Mo, 22.04. 15:30 0.0 l/m2 in 1 Std. -
Mo, 22.04. 15:20 keine Meldung -
Mo, 22.04. 15:10 keine Meldung -
Mo, 22.04. 15:00 0.0 l/m2 in 1 Std. -
Mo, 22.04. 14:50 keine Meldung -
Mo, 22.04. 14:40 keine Meldung -
Mo, 22.04. 14:30 0.0 l/m2 in 1 Std. -
Mo, 22.04. 14:00 0.0 l/m2 in 1 Std. -
Mo, 22.04. 13:30 0.0 l/m2 in 1 Std. -
Mo, 22.04. 13:00 0.0 l/m2 in 1 Std. -
Mo, 22.04. 12:30 keine Meldung -
Ortszeit Stärke Spitze Richtung
km/h Bft. km/h Grad Sektor
Mo, 22.04. 14:00 11 2 37 80° O
Mo, 22.04. 8:00 14 3 32 20° N
Mo, 22.04. 2:00 15 3 22 10° N
So, 21.04. 20:00 15 3 31 60° NO
So, 21.04. 14:00 17 3 33 60° NO
So, 21.04. 8:00 11 2 25 20° N
So, 21.04. 2:00 14 3 25 10° N
Sa, 20.04. 20:00 13 3 33 90° O
Ortszeit Stärke Spitze Richtung
km/h Bft. km/h Grad Sektor
Mo, 22.04. 15:30 18 3 36 70° O
Mo, 22.04. 15:20 18 3 - 70° O
Mo, 22.04. 15:10 18 3 - 60° NO
Mo, 22.04. 15:00 20 4 35 60° NO
Mo, 22.04. 14:50 20 4 - 60° NO
Mo, 22.04. 14:40 17 3 - 70° O
Mo, 22.04. 14:30 19 3 31 70° O
Mo, 22.04. 14:00 11 2 35 80° O
Mo, 22.04. 13:30 15 3 33 70° O
Mo, 22.04. 13:00 17 3 33 80° O
Mo, 22.04. 12:30 15 3 31 80° O
Ortszeit Untergrenze Bedeckung Gattung
total tief tief mittel hoch
Mo, 22.04. 14:00 - 0/8 0/8 - - -
Mo, 22.04. 8:00 9000 m 3/8 0/8 - - -
Mo, 22.04. 2:00 6000 m 8/8 4/8 - - -
So, 21.04. 20:00 - 0/8 0/8 - - -
So, 21.04. 14:00 - 0/8 0/8 - - -
So, 21.04. 8:00 - 0/8 0/8 - - -
So, 21.04. 2:00 - 0/8 0/8 - - -
Sa, 20.04. 20:00 - 0/8 0/8 - - -
Ortszeit Bedeckungsgrad in Achtel und Wolkenuntergrenze
Mo, 22.04. 15:30 1(8400m)
Mo, 22.04. 15:20 1(8400m)
Mo, 22.04. 15:10 2(8400m)
Mo, 22.04. 15:00 2(9000m)
Mo, 22.04. 14:50 2(9000m)
Mo, 22.04. 14:40 4(9000m)
Mo, 22.04. 14:30 5(9000m)
Mo, 22.04. 14:00 keine Wolken
Mo, 22.04. 13:30 1(9000m)
Mo, 22.04. 13:00 1(7500m)
Mo, 22.04. 12:30 1(6300m) 7(6900m) 7(7500m)
Ortszeit Luftdruck NN (hPa) Tendenz (hPa in 3 Std.)
Mo, 22.04. 14:00 1006 - 2,3
Mo, 22.04. 8:00 1012 - 0,8
Mo, 22.04. 2:00 1014 - 1,2
So, 21.04. 20:00 1014 - 1,4
So, 21.04. 14:00 1018 - 2,3
So, 21.04. 8:00 1023 - 0,8
So, 21.04. 2:00 1024 - 1,1
Sa, 20.04. 20:00 1024 - 0,9
Ortszeit Luftdruck NN (hPa) Tendenz (hPa in 3 Std.)
Mo, 22.04. 15:30 1005 - 2,2
Mo, 22.04. 15:20 1005 keine Meldung
Mo, 22.04. 15:10 1005 keine Meldung
Mo, 22.04. 15:00 1005 - 2,2
Mo, 22.04. 14:50 1005 keine Meldung
Mo, 22.04. 14:40 1005 keine Meldung
Mo, 22.04. 14:30 1005 - 2,2
Mo, 22.04. 14:00 1006 - 2,3
Mo, 22.04. 13:30 1006 - 2,6
Mo, 22.04. 13:00 1007 - 2,3
Mo, 22.04. 12:30 1007 - 2,2
Ortszeit Schneehöhe (cm)
Mo, 22.04. 14:00 0
Mo, 22.04. 8:00 0
Mo, 22.04. 2:00 0
So, 21.04. 20:00 0
So, 21.04. 14:00 0
So, 21.04. 8:00 0
So, 21.04. 2:00 0
Sa, 20.04. 20:00 0
Ortszeit Schneehöhe (cm)
Mo, 22.04. 15:30 0
Mo, 22.04. 15:20 0
Mo, 22.04. 15:10 0
Mo, 22.04. 15:00 0
Mo, 22.04. 14:50 0
Mo, 22.04. 14:40 0
Mo, 22.04. 14:30 0
Mo, 22.04. 14:00 0
Mo, 22.04. 13:30 0
Mo, 22.04. 13:00 0
Mo, 22.04. 12:30 0
Link zu dieser Seite / Seite empfehlen

Das Wetter in ...